Time;durP1;ratioP1;P1;durP2;ratioP2;P2;SDS_P1;SDS_P2;PMS_P1;PMS_P2;Temp;Humidity;BMP_temperature;BMP_pressure;BME280_temperature;BME280_humidity;BME280_pressure;Samples;Min_cycle;Max_cycle;Signal;HPM_P1;HPM_P2
2023/10/14 00:00:55;;;;;;;10.87;7.50;;;;;;;;;;4982182;28;20456;-88
2023/10/14 00:03:27;;;;;;;13.10;8.00;;;18.80;1.00;;;;;;4980905;28;20493;-87
2023/10/14 00:06:00;;;;;;;10.53;6.70;;;18.60;27.50;;;;;;4982780;28;20496;-87
2023/10/14 00:08:31;;;;;;;9.50;7.83;;;;;;;;;;4995488;28;20545;-86
2023/10/14 00:11:04;;;;;;;10.67;6.93;;;18.50;99.90;;;;;;5005842;28;20456;-87
2023/10/14 00:13:36;;;;;;;12.10;7.37;;;;;;;;;;5000327;28;20438;-87
2023/10/14 00:16:08;;;;;;;10.83;7.07;;;18.40;99.90;;;;;;5003305;28;20506;-87
2023/10/14 00:18:36;;;;;;;10.10;7.63;;;18.30;99.90;;;;;;5010678;28;20482;-87
2023/10/14 00:21:05;;;;;;;12.63;8.60;;;;;;;;;;5007679;28;20468;-87
2023/10/14 00:23:38;;;;;;;11.20;7.20;;;;;;;;;;5000625;28;20490;-87
2023/10/14 00:26:13;;;;;;;12.33;6.70;;;;;;;;;;5001126;28;20533;-86
2023/10/14 00:28:41;;;;;;;20.37;8.17;;;;;;;;;;5001577;28;20881;-87
2023/10/14 00:31:10;;;;;;;9.90;7.20;;;;;;;;;;5000871;28;20516;-87
2023/10/14 00:33:41;;;;;;;18.47;9.10;;;17.90;1.00;;;;;;5000061;28;20885;-87
2023/10/14 00:36:13;;;;;;;13.67;7.73;;;17.70;1.00;;;;;;4998352;28;20438;-87
2023/10/14 00:38:44;;;;;;;10.90;6.23;;;18.50;99.90;;;;;;4997920;28;20466;-87
2023/10/14 00:41:11;;;;;;;7.20;5.00;;;17.70;1.00;;;;;;5014258;28;20414;-88
2023/10/14 00:43:39;;;;;;;10.57;6.17;;;17.70;28.40;;;;;;5018242;28;20489;-87
2023/10/14 00:46:14;;;;;;;14.90;5.50;;;17.60;1.00;;;;;;5014355;28;20446;-87
2023/10/14 00:48:44;;;;;;;7.17;5.80;;;17.70;1.00;;;;;;5003588;28;20498;-87
2023/10/14 00:51:14;;;;;;;8.67;5.83;;;17.50;1.00;;;;;;4998392;28;20426;-87
2023/10/14 00:53:51;;;;;;;14.30;6.13;;;17.50;99.90;;;;;;4998025;28;20441;-87
2023/10/14 00:56:20;;;;;;;10.70;5.23;;;17.60;1.00;;;;;;5006608;28;20440;-87
2023/10/14 00:58:50;;;;;;;11.07;5.77;;;17.60;99.90;;;;;;5007198;28;20464;-87
2023/10/14 01:01:18;;;;;;;8.57;5.50;;;;;;;;;;5005248;28;20873;-87
2023/10/14 01:03:48;;;;;;;8.90;5.37;;;18.10;99.90;;;;;;4999034;28;20495;-87
2023/10/14 01:06:23;;;;;;;9.30;5.37;;;17.60;99.90;;;;;;4997222;28;20483;-87
2023/10/14 01:08:52;;;;;;;7.03;4.97;;;17.70;1.00;;;;;;4997670;28;20511;-87
2023/10/14 01:11:20;;;;;;;8.70;5.53;;;17.70;99.90;;;;;;4997553;28;20453;-88
2023/10/14 01:13:49;;;;;;;9.37;6.47;;;;;;;;;;4998600;28;20441;-87
2023/10/14 01:16:16;;;;;;;5.13;4.40;;;17.70;99.90;;;;;;5000344;28;20457;-87
2023/10/14 01:18:46;;;;;;;7.50;5.87;;;18.00;99.90;;;;;;5007256;28;20472;-87
2023/10/14 01:21:13;;;;;;;7.40;4.30;;;18.00;1.00;;;;;;5001959;28;20432;-88
2023/10/14 01:23:44;;;;;;;8.70;5.40;;;17.80;99.90;;;;;;4996829;28;20490;-88
2023/10/14 01:26:11;;;;;;;9.50;4.73;;;17.90;1.00;;;;;;4996584;28;20545;-87
2023/10/14 01:28:44;;;;;;;10.13;5.80;;;18.00;1.00;;;;;;5003162;28;20461;-87
2023/10/14 01:31:31;;;;;;;7.50;5.87;;;18.00;1.00;;;;;;5015398;28;20443;-88
2023/10/14 01:33:58;;;;;;;5.87;5.37;;;18.10;1.00;;;;;;5018162;28;20439;-87
2023/10/14 01:36:27;;;;;;;9.03;5.10;;;;;;;;;;5016410;28;20454;-87
2023/10/14 01:38:59;;;;;;;5.63;4.20;;;18.10;20.60;;;;;;4998685;28;20535;-87
2023/10/14 01:41:29;;;;;;;9.10;4.73;;;;;;;;;;5014062;28;20446;-87
2023/10/14 01:43:59;;;;;;;9.20;4.67;;;;;;;;;;5011972;28;20472;-88
2023/10/14 01:46:27;;;;;;;7.33;5.13;;;;;;;;;;5000524;28;20446;-88
2023/10/14 01:48:55;;;;;;;6.83;5.47;;;18.10;1.00;;;;;;5000406;28;20477;-88
2023/10/14 01:51:25;;;;;;;6.47;4.67;;;18.00;1.00;;;;;;4999720;28;20460;-88
2023/10/14 01:53:52;;;;;;;6.23;4.50;;;17.60;99.90;;;;;;5001388;28;20516;-88
2023/10/14 01:56:20;;;;;;;9.93;5.27;;;17.90;58.10;;;;;;5000169;28;20532;-88
2023/10/14 01:58:57;;;;;;;8.00;5.23;;;;;;;;;;4998096;28;20480;-88
2023/10/14 02:01:24;;;;;;;9.77;5.10;;;;;;;;;;4997937;28;20453;-88
2023/10/14 02:03:51;;;;;;;6.70;4.57;;;;;;;;;;5001660;28;20568;-88
2023/10/14 02:06:26;;;;;;;7.17;4.83;;;17.90;99.90;;;;;;5002768;28;20991;-88
2023/10/14 02:08:54;;;;;;;4.40;4.00;;;17.30;99.90;;;;;;5003273;28;20489;-88
2023/10/14 02:11:24;;;;;;;7.27;5.30;;;17.80;99.90;;;;;;5004386;28;20541;-88
2023/10/14 02:13:52;;;;;;;7.73;6.10;;;17.90;1.00;;;;;;5012268;28;20409;-89
2023/10/14 02:16:24;;;;;;;11.40;4.60;;;;;;;;;;5020469;28;20457;-88
2023/10/14 02:18:51;;;;;;;9.40;4.43;;;17.90;1.00;;;;;;5019723;28;20482;-88
2023/10/14 02:21:18;;;;;;;11.60;5.37;;;17.90;99.90;;;;;;5022146;28;20605;-88
2023/10/14 02:23:47;;;;;;;9.90;4.60;;;17.60;99.90;;;;;;5021678;28;20489;-88
2023/10/14 02:26:16;;;;;;;9.27;5.80;;;17.90;1.00;;;;;;5012271;28;20879;-88
2023/10/14 02:28:46;;;;;;;8.77;5.33;;;17.90;27.00;;;;;;5007947;28;20501;-88
2023/10/14 02:31:29;;;;;;;6.43;5.20;;;17.90;99.90;;;;;;5007194;28;20450;-88
2023/10/14 02:33:56;;;;;;;11.30;8.20;;;;;;;;;;5012777;28;20423;-88
2023/10/14 02:36:28;;;;;;;7.70;6.30;;;17.90;1.00;;;;;;5004396;28;20547;-88
2023/10/14 02:38:56;;;;;;;7.93;4.27;;;17.90;1.00;;;;;;5000168;28;20552;-88
2023/10/14 02:41:26;;;;;;;6.43;4.67;;;17.90;99.90;;;;;;4999459;28;20549;-88
2023/10/14 02:44:01;;;;;;;6.30;4.43;;;17.90;99.90;;;;;;5000794;28;20488;-88
2023/10/14 02:46:29;;;;;;;5.67;5.03;;;18.00;1.00;;;;;;4999321;28;20439;-88
2023/10/14 02:49:02;;;;;;;7.50;5.00;;;18.00;16.70;;;;;;5002652;28;20618;-87
2023/10/14 02:51:35;;;;;;;5.07;4.00;;;18.10;1.00;;;;;;5010049;28;20883;-88
2023/10/14 02:54:04;;;;;;;5.87;4.83;;;;;;;;;;5000722;28;20434;-88
2023/10/14 02:56:45;;;;;;;7.13;4.93;;;18.20;1.00;;;;;;4999685;28;20493;-88
2023/10/14 02:59:16;;;;;;;7.10;5.50;;;18.20;99.90;;;;;;4998904;28;20499;-88
2023/10/14 03:01:50;;;;;;;6.83;4.40;;;;;;;;;;4999633;28;20435;-88
2023/10/14 03:04:22;;;;;;;7.93;4.50;;;18.30;89.00;;;;;;4999773;28;20532;-88
2023/10/14 03:06:53;;;;;;;9.10;4.77;;;18.20;99.90;;;;;;4998931;28;20438;-88
2023/10/14 03:09:32;;;;;;;13.07;9.90;;;18.30;99.90;;;;;;4999363;28;20478;-87
2023/10/14 03:11:59;;;;;;;7.10;5.40;;;;;;;;;;4999289;28;20446;-88
2023/10/14 03:14:28;;;;;;;6.83;4.57;;;18.30;99.90;;;;;;4999111;28;20555;-87
2023/10/14 03:16:55;;;;;;;7.90;5.07;;;18.40;99.90;;;;;;4999155;28;20474;-88
2023/10/14 03:19:24;;;;;;;10.43;5.17;;;18.40;99.90;;;;;;4999952;28;20467;-88
2023/10/14 03:21:58;;;;;;;4.80;4.40;;;;;;;;;;4998878;28;20478;-87
2023/10/14 03:24:27;;;;;;;9.50;5.57;;;18.50;99.90;;;;;;5000240;28;20473;-87
2023/10/14 03:27:00;;;;;;;8.40;5.63;;;18.50;99.90;;;;;;4999280;28;20452;-87
2023/10/14 03:29:29;;;;;;;8.27;5.10;;;18.50;99.90;;;;;;4999036;28;20478;-88
2023/10/14 03:31:56;;;;;;;7.70;5.50;;;;;;;;;;4999745;28;20445;-87
2023/10/14 03:34:29;;;;;;;14.27;5.40;;;18.50;99.90;;;;;;4999984;28;20443;-88
2023/10/14 03:37:00;;;;;;;5.17;4.67;;;18.50;99.90;;;;;;4999282;28;20440;-88
2023/10/14 03:39:38;;;;;;;9.37;5.37;;;18.50;99.90;;;;;;4998581;28;20471;-88
2023/10/14 03:42:10;;;;;;;10.53;5.20;;;18.50;99.90;;;;;;4999374;28;20974;-87
2023/10/14 03:44:58;;;;;;;7.33;4.57;;;18.60;1.00;;;;;;5011127;28;20469;-87
2023/10/14 03:47:34;;;;;;;7.83;6.60;;;;;;;;;;5015041;28;20483;-87
2023/10/14 03:50:01;;;;;;;6.27;5.47;;;18.50;1.00;;;;;;5020903;28;20446;-86
2023/10/14 03:52:30;;;;;;;10.60;7.00;;;;;;;;;;5020864;28;20467;-86
2023/10/14 03:54:59;;;;;;;5.63;5.07;;;18.40;99.90;;;;;;4999284;28;20493;-88
2023/10/14 03:57:34;;;;;;;7.63;5.67;;;;;;;;;;5000246;28;20448;-87
2023/10/14 04:00:12;;;;;;;12.70;4.90;;;18.40;1.00;;;;;;4998550;28;20487;-87
2023/10/14 04:02:40;;;;;;;7.97;6.43;;;18.40;1.00;;;;;;4997410;28;20976;-88
2023/10/14 04:05:10;;;;;;;9.97;5.70;;;18.40;46.60;;;;;;4998511;28;20455;-88
2023/10/14 04:07:40;;;;;;;10.17;6.00;;;18.40;99.90;;;;;;4998150;28;20478;-88
2023/10/14 04:10:09;;;;;;;9.37;6.77;;;18.40;99.90;;;;;;4998375;28;20468;-88
2023/10/14 04:12:38;;;;;;;6.37;5.30;;;;;;;;;;4998093;28;20447;-88
2023/10/14 04:15:34;;;;;;;7.83;6.27;;;18.50;1.00;;;;;;4998178;28;20493;-88
2023/10/14 04:18:12;;;;;;;10.07;4.83;;;18.40;99.90;;;;;;4997448;28;20463;-88
2023/10/14 04:20:41;;;;;;;7.00;5.27;;;18.40;99.90;;;;;;4998512;28;20788;-88
2023/10/14 04:23:26;;;;;;;5.50;5.00;;;;;;;;;;5001621;28;20483;-88
2023/10/14 04:26:03;;;;;;;7.53;6.83;;;18.00;99.90;;;;;;5011651;28;20436;-88
2023/10/14 04:28:39;;;;;;;9.23;5.07;;;18.20;1.00;;;;;;5014070;28;20478;-87
2023/10/14 04:31:08;;;;;;;9.37;6.30;;;18.30;71.90;;;;;;5013015;28;20443;-87
2023/10/14 04:33:44;;;;;;;7.30;5.97;;;18.30;99.90;;;;;;5004370;28;20454;-88
2023/10/14 04:36:37;;;;;;;10.13;5.10;;;18.30;99.90;;;;;;4999555;28;20439;-88
2023/10/14 04:39:12;;;;;;;7.67;6.43;;;18.30;99.90;;;;;;4998723;28;20474;-88
2023/10/14 04:41:45;;;;;;;9.70;5.10;;;18.40;1.00;;;;;;4997634;28;20687;-88
2023/10/14 04:44:13;;;;;;;7.33;6.60;;;;;;;;;;5001976;28;20479;-88
2023/10/14 04:46:51;;;;;;;13.80;5.67;;;18.20;99.90;;;;;;5002041;28;20451;-87
2023/10/14 04:49:37;;;;;;;7.73;5.90;;;;;;;;;;5003012;28;20475;-87
2023/10/14 04:52:06;;;;;;;6.27;5.47;;;18.50;99.90;;;;;;5006825;28;20450;-89
2023/10/14 04:55:00;;;;;;;6.43;5.83;;;18.50;99.90;;;;;;5016931;28;20459;-91
2023/10/14 04:57:31;;;;;;;10.20;5.50;;;;;;;;;;5017865;28;20574;-92
2023/10/14 05:00:08;;;;;;;5.70;5.20;;;18.40;79.60;;;;;;5008632;28;20437;-92
2023/10/14 05:02:38;;;;;;;6.93;5.40;;;18.40;77.40;;;;;;5001665;28;20443;-91
2023/10/14 05:05:07;;;;;;;9.07;5.40;;;18.70;1.00;;;;;;5003701;28;20422;-90
2023/10/14 05:19:15;;;;;;;8.37;6.60;;;;;;;;;;5020148;28;20464;-91
2023/10/14 05:21:53;;;;;;;9.50;6.83;;;;;;;;;;5019728;28;20470;-91
2023/10/14 05:24:35;;;;;;;9.47;6.80;;;;;;;;;;5019539;28;20471;-91
2023/10/14 05:27:46;;;;;;;12.60;7.73;;;16.50;99.90;;;;;;5021579;28;20471;-90
2023/10/14 05:30:22;;;;;;;9.87;7.40;;;16.40;99.90;;;;;;4959921;29;20442;-90
2023/10/14 05:33:06;;;;;;;8.17;6.00;;;;;;;;;;4977313;28;20447;-91
2023/10/14 05:35:49;;;;;;;7.60;6.57;;;16.40;99.90;;;;;;5022842;28;20447;-91
2023/10/14 05:41:21;;;;;;;8.03;5.70;;;;;;;;;;5019768;28;20439;-91
2023/10/14 05:43:51;;;;;;;6.00;4.97;;;;;;;;;;5023079;28;21003;-91
2023/10/14 05:46:37;;;;;;;6.10;5.10;;;;;;;;;;5027158;28;20458;-91
2023/10/14 05:49:10;;;;;;;5.50;4.97;;;;;;;;;;5019375;28;20468;-91
2023/10/14 05:51:57;;;;;;;9.33;4.97;;;;;;;;;;5027401;28;20469;-91
2023/10/14 05:54:28;;;;;;;4.57;3.70;;;;;;;;;;5038386;28;20463;-94
2023/10/14 05:56:55;;;;;;;2.63;2.20;;;;;;;;;;5038467;28;20471;-93
2023/10/14 06:05:02;;;;;;;1.43;1.30;;;;;;;;;;5034715;28;20486;-92
2023/10/14 06:08:07;;;;;;;1.37;1.00;;;14.30;99.90;;;;;;5032561;28;20410;-91
2023/10/14 06:16:40;;;;;;;1.37;0.80;;;;;;;;;;4985403;28;20461;-92
2023/10/14 06:19:12;;;;;;;1.70;0.90;;;;;;;;;;5030945;28;20472;-92
2023/10/14 06:27:59;;;;;;;1.73;1.40;;;13.80;99.90;;;;;;5034676;28;20446;-94
2023/10/14 06:30:39;;;;;;;1.57;0.90;;;;;;;;;;5027496;28;20463;-91
2023/10/14 06:33:28;;;;;;;;;;;;;;;;;;;;;
2023/10/14 06:36:13;;;;;;;1.77;0.90;;;;;;;;;;5022284;28;20448;-93
2023/10/14 06:38:59;;;;;;;1.60;1.50;;;;;;;;;;5037821;28;20538;-92
2023/10/14 06:41:29;;;;;;;1.17;1.07;;;;;;;;;;5038210;28;20450;-91
2023/10/14 06:44:08;;;;;;;1.30;0.80;;;;;;;;;;5035087;28;20490;-92
2023/10/14 06:49:56;;;;;;;3.10;1.30;;;13.70;99.90;;;;;;5014652;28;20856;-92
2023/10/14 06:52:49;;;;;;;1.77;1.13;;;13.60;99.90;;;;;;5035298;28;20443;-94
2023/10/14 07:01:35;;;;;;;4.03;1.47;;;;;;;;;;5030299;28;20503;-91
2023/10/14 07:04:37;;;;;;;1.30;1.20;;;;;;;;;;5032812;28;20494;-92
2023/10/14 07:21:59;;;;;;;2.37;1.40;;;;;;;;;;4999966;28;20450;-92
2023/10/14 07:24:29;;;;;;;2.53;1.50;;;;;;;;;;5024066;28;20475;-91
2023/10/14 07:34:39;;;;;;;2.03;1.70;;;13.90;99.90;;;;;;4853765;29;20596;-92
2023/10/14 07:40:58;;;;;;;2.40;1.40;;;;;;;;;;4839394;29;20511;-91
2023/10/14 07:53:15;;;;;;;1.93;1.20;;;13.90;99.90;;;;;;4886495;29;20448;-91
2023/10/14 07:56:26;;;;;;;3.07;1.47;;;13.90;99.90;;;;;;4950162;28;20514;-92
2023/10/14 07:59:45;;;;;;;1.73;1.60;;;13.80;99.90;;;;;;4945511;29;20621;-91
2023/10/14 08:18:30;;;;;;;1.53;1.43;;;13.90;99.90;;;;;;5049317;28;20474;-91
2023/10/14 08:20:59;;;;;;;4.07;1.30;;;;;;;;;;5039054;28;20443;-93
2023/10/14 08:23:33;;;;;;;2.17;1.60;;;14.30;99.90;;;;;;5028411;28;20444;-91
2023/10/14 08:26:12;;;;;;;3.17;1.30;;;;;;;;;;5019989;28;20864;-92
2023/10/14 10:28:34;;;;;;;2.30;2.10;;;15.90;1.00;;;;;;4806074;28;20456;-93
2023/10/14 10:35:59;;;;;;;6.07;1.40;;;15.50;1.00;;;;;;4862757;29;20431;-93
2023/10/14 10:41:19;;;;;;;4.30;1.90;;;16.60;1.00;;;;;;4961913;23;20486;-89
2023/10/14 10:43:47;;;;;;;4.07;1.80;;;15.80;1.00;;;;;;5041015;28;20931;-89
2023/10/14 10:46:29;;;;;;;3.73;1.40;;;15.80;1.00;;;;;;5043736;28;20448;-89
2023/10/14 10:48:56;;;;;;;8.63;1.77;;;15.50;1.00;;;;;;5039714;28;20908;-89
2023/10/14 10:51:29;;;;;;;6.30;2.97;;;15.70;1.00;;;;;;5031438;28;20996;-89
2023/10/14 10:53:59;;;;;;;4.87;1.90;;;15.70;1.00;;;;;;5024394;28;20470;-87
2023/10/14 10:56:28;;;;;;;7.03;2.40;;;15.80;1.00;;;;;;5025596;28;20805;-87
2023/10/14 10:58:57;;;;;;;6.67;2.30;;;15.90;1.00;;;;;;5023671;28;20447;-87
2023/10/14 11:01:24;;;;;;;9.83;1.80;;;15.90;1.00;;;;;;5027624;28;20463;-86
2023/10/14 11:03:51;;;;;;;3.37;1.90;;;16.00;1.00;;;;;;5031212;28;20971;-86
2023/10/14 11:06:19;;;;;;;5.73;2.27;;;16.00;1.00;;;;;;5031060;28;20802;-86
2023/10/14 11:08:47;;;;;;;6.73;1.50;;;16.10;1.00;;;;;;5031739;28;20447;-86
2023/10/14 11:11:14;;;;;;;4.93;2.10;;;16.20;1.00;;;;;;5028799;28;20569;-86
2023/10/14 11:13:42;;;;;;;7.87;2.23;;;16.40;1.00;;;;;;5026912;28;20451;-87
2023/10/14 11:16:12;;;;;;;6.60;1.87;;;16.50;1.00;;;;;;5025554;28;20538;-87
2023/10/14 11:18:47;;;;;;;7.33;2.40;;;16.40;1.00;;;;;;5025039;28;21045;-86
2023/10/14 11:21:15;;;;;;;5.87;2.07;;;16.30;1.00;;;;;;5025885;28;20847;-86
2023/10/14 11:23:43;;;;;;;2.63;1.33;;;16.40;1.00;;;;;;5022879;28;20451;-86
2023/10/14 11:26:15;;;;;;;5.07;1.70;;;16.40;1.00;;;;;;5022773;28;20553;-86
2023/10/14 11:28:45;;;;;;;8.80;2.43;;;16.40;1.00;;;;;;5022079;28;20436;-85
2023/10/14 11:31:12;;;;;;;6.23;2.20;;;16.30;1.00;;;;;;5022100;28;20471;-87
2023/10/14 11:33:39;;;;;;;7.40;1.73;;;16.30;1.00;;;;;;5031659;28;20447;-89
2023/10/14 11:36:07;;;;;;;6.20;1.87;;;16.20;1.00;;;;;;5039692;28;20482;-85
2023/10/14 11:38:42;;;;;;;5.57;2.03;;;16.00;1.00;;;;;;5039852;28;20459;-86
2023/10/14 11:41:10;;;;;;;3.97;1.90;;;15.60;1.00;;;;;;5028890;28;21020;-89
2023/10/14 11:43:44;;;;;;;6.47;2.80;;;15.70;1.00;;;;;;5023994;28;20436;-89
2023/10/14 11:46:14;;;;;;;5.23;2.60;;;15.40;1.00;;;;;;5021372;28;20432;-89
2023/10/14 11:48:48;;;;;;;6.80;1.63;;;15.50;1.00;;;;;;5029226;28;20427;-88
2023/10/14 11:51:21;;;;;;;5.53;1.70;;;15.80;1.00;;;;;;5021757;28;20537;-87
2023/10/14 11:53:52;;;;;;;6.20;2.00;;;15.40;1.00;;;;;;5022427;28;20452;-88
2023/10/14 11:56:19;;;;;;;9.90;2.63;;;15.60;1.00;;;;;;5022731;28;20471;-89
2023/10/14 11:58:49;;;;;;;2.90;1.83;;;15.60;1.00;;;;;;5028901;28;20431;-88
2023/10/14 12:01:16;;;;;;;6.10;2.00;;;15.80;1.00;;;;;;5027416;28;20495;-87
2023/10/14 12:03:43;;;;;;;7.60;1.63;;;16.00;1.00;;;;;;5032867;28;20448;-87
2023/10/14 12:06:12;;;;;;;6.23;2.23;;;16.00;1.00;;;;;;5031151;28;20482;-87
2023/10/14 12:08:39;;;;;;;7.37;2.50;;;16.20;1.00;;;;;;5029251;28;20447;-87
2023/10/14 12:11:08;;;;;;;6.30;1.90;;;16.40;1.00;;;;;;5015021;28;20467;-87
2023/10/14 12:13:36;;;;;;;4.37;2.00;;;16.50;1.00;;;;;;5031899;28;20940;-87
2023/10/14 12:16:06;;;;;;;7.43;2.13;;;16.50;1.00;;;;;;5031154;28;20507;-87
2023/10/14 12:18:35;;;;;;;8.97;1.83;;;16.60;1.00;;;;;;5037254;28;20527;-88
2023/10/14 12:21:03;;;;;;;6.53;2.57;;;16.40;1.00;;;;;;5021414;28;20479;-86
2023/10/14 12:23:31;;;;;;;10.30;1.97;;;16.30;1.00;;;;;;5023462;28;20451;-87
2023/10/14 12:26:00;;;;;;;6.83;1.60;;;15.80;1.00;;;;;;5019985;28;20554;-86
2023/10/14 12:28:30;;;;;;;6.53;2.03;;;15.60;1.00;;;;;;5020547;28;20470;-88
2023/10/14 12:31:02;;;;;;;7.97;3.53;;;15.60;1.00;;;;;;5021335;28;20578;-88
2023/10/14 12:33:32;;;;;;;7.13;1.83;;;15.60;1.00;;;;;;5027647;28;20428;-88
2023/10/14 12:36:05;;;;;;;5.30;1.87;;;15.60;1.00;;;;;;5033924;28;20486;-87
2023/10/14 12:38:32;;;;;;;2.83;1.90;;;15.50;1.00;;;;;;5039374;28;20435;-87
2023/10/14 12:41:01;;;;;;;5.63;2.40;;;15.60;1.00;;;;;;5027732;28;20542;-87
2023/10/14 12:43:29;;;;;;;7.63;2.10;;;15.60;1.00;;;;;;5025984;28;20436;-87
2023/10/14 12:46:09;;;;;;;8.93;2.20;;;15.60;1.00;;;;;;5022158;28;20447;-87
2023/10/14 12:48:40;;;;;;;7.83;1.73;;;15.50;1.00;;;;;;5023674;28;20411;-86
2023/10/14 14:48:29;;;;;;;8.70;3.37;;;15.20;99.90;;;;;;3806272;23;21073;-90
2023/10/14 14:51:51;;;;;;;6.43;2.40;;;14.90;99.90;;;;;;4972040;28;20921;-91
2023/10/14 14:57:38;;;;;;;6.83;1.93;;;13.90;1.00;;;;;;5262989;23;20478;-91
2023/10/14 15:07:57;;;;;;;4.50;2.83;;;13.60;1.00;;;;;;5016442;23;20484;-86
2023/10/14 15:10:25;;;;;;;422.33;288.60;;;13.60;1.00;;;;;;4994774;28;20544;-88
2023/10/14 15:12:56;;;;;;;113.13;65.07;;;13.90;1.00;;;;;;4989882;28;20504;-89
2023/10/14 15:15:26;;;;;;;5.33;1.93;;;13.70;1.00;;;;;;4986585;28;20483;-88
2023/10/14 16:35:55;;;;;;;;;;;;;;;;;;;;;
2023/10/14 16:49:52;;;;;;;2.20;2.00;;;11.50;1.00;;;;;;4776033;30;20496;-90
2023/10/14 16:53:14;;;;;;;3.30;2.17;;;11.60;99.90;;;;;;4811320;29;20493;-91
2023/10/14 17:03:22;;;;;;;4.27;1.57;;;11.70;65.50;;;;;;4859127;29;20460;-89
2023/10/14 17:13:05;;;;;;;7.30;2.40;;;11.70;1.00;;;;;;5004633;28;20433;-90
2023/10/14 17:19:45;;;;;;;;;;;;;;;;;;;;;
2023/10/14 17:40:54;;;;;;;4.43;2.77;;;11.60;1.00;;;;;;4824483;29;20443;-89
2023/10/14 18:36:26;;;;;;;5.73;2.60;;;11.70;6.20;;;;;;5037036;26;20485;-90
2023/10/14 18:39:46;;;;;;;3.20;3.00;;;11.70;1.00;;;;;;5030761;28;20441;-90
2023/10/14 18:49:35;;;;;;;5.33;2.90;;;11.50;1.00;;;;;;5034280;28;20437;-91
2023/10/14 18:52:50;;;;;;;2.77;2.07;;;11.60;1.00;;;;;;5044163;28;20445;-91
2023/10/14 19:12:53;;;;;;;4.23;2.20;;;11.60;1.00;;;;;;4928019;29;20440;-90
2023/10/14 19:25:56;;;;;;;2.40;1.83;;;11.60;1.00;;;;;;4989420;28;20440;-90
2023/10/14 19:35:23;;;;;;;3.67;2.03;;;11.80;1.00;;;;;;5012242;23;20488;-88
2023/10/14 19:37:53;;;;;;;6.67;2.60;;;11.90;99.90;;;;;;5001710;28;20423;-89
2023/10/14 19:40:20;;;;;;;5.63;2.47;;;;;;;;;;4989238;28;20500;-89
2023/10/14 19:42:50;;;;;;;4.70;1.80;;;11.90;1.00;;;;;;4983472;28;20451;-88
2023/10/14 19:45:20;;;;;;;5.17;2.30;;;13.20;1.00;;;;;;4984130;28;20492;-89
2023/10/14 19:47:48;;;;;;;5.87;2.00;;;;;;;;;;4986698;28;20536;-89
2023/10/14 19:50:16;;;;;;;4.90;2.33;;;11.70;1.00;;;;;;4982368;28;20445;-88
2023/10/14 19:52:46;;;;;;;8.03;2.87;;;11.60;1.00;;;;;;4981810;28;20437;-88
2023/10/14 19:55:22;;;;;;;3.60;2.43;;;11.60;1.00;;;;;;4983523;28;20443;-89
2023/10/14 19:57:53;;;;;;;4.93;2.43;;;11.50;1.00;;;;;;4983389;28;20500;-90
2023/10/14 20:00:22;;;;;;;9.93;2.60;;;;;;;;;;4989064;28;20428;-88
2023/10/14 20:02:49;;;;;;;8.87;3.50;;;;;;;;;;5000312;28;20509;-88
2023/10/14 20:05:18;;;;;;;2.57;2.37;;;;;;;;;;5001151;28;20454;-87
2023/10/14 20:07:50;;;;;;;6.33;2.87;;;9.10;1.00;;;;;;5001182;28;20493;-88
2023/10/14 20:10:18;;;;;;;10.33;2.73;;;;;;;;;;4994945;28;20459;-88
2023/10/14 20:12:49;;;;;;;4.40;1.80;;;11.50;1.00;;;;;;4985890;28;20461;-88
2023/10/14 20:15:20;;;;;;;3.50;2.30;;;11.50;1.00;;;;;;4982467;28;20516;-89
2023/10/14 20:17:51;;;;;;;4.60;2.70;;;11.50;1.00;;;;;;4986160;28;20433;-89
2023/10/14 20:20:20;;;;;;;7.03;2.73;;;;;;;;;;4991715;28;20413;-89
2023/10/14 20:22:52;;;;;;;3.20;2.00;;;;;;;;;;4992389;28;20462;-89
2023/10/14 20:25:24;;;;;;;10.65;2.63;;;11.60;1.00;;;;;;4983808;28;21009;-89
2023/10/14 20:27:53;;;;;;;7.27;2.53;;;11.60;1.00;;;;;;4986843;28;20229;-90
2023/10/14 20:30:26;;;;;;;6.43;2.30;;;11.60;1.00;;;;;;4983368;28;20480;-89
2023/10/14 20:32:54;;;;;;;8.27;6.50;;;;;;;;;;4983406;28;20437;-89
2023/10/14 20:35:23;;;;;;;6.73;2.20;;;11.60;1.00;;;;;;4982856;28;20994;-89
2023/10/14 20:37:56;;;;;;;7.43;2.27;;;11.70;1.00;;;;;;4985304;28;20449;-89
2023/10/14 20:40:25;;;;;;;3.47;1.97;;;11.60;1.00;;;;;;4999374;28;20444;-88
2023/10/14 20:42:52;;;;;;;4.80;2.57;;;11.60;1.00;;;;;;4994452;28;20482;-89
2023/10/14 20:45:22;;;;;;;4.33;2.20;;;11.80;1.00;;;;;;4986194;28;20473;-89
2023/10/14 20:47:50;;;;;;;4.20;1.63;;;11.60;1.00;;;;;;4982203;28;20485;-89
2023/10/14 20:50:21;;;;;;;4.40;2.03;;;11.60;1.00;;;;;;4983723;28;20441;-89
2023/10/14 20:52:49;;;;;;;3.20;2.10;;;11.60;1.00;;;;;;4991180;28;20421;-89
2023/10/14 20:55:22;;;;;;;5.33;1.70;;;11.50;1.00;;;;;;4991150;28;20496;-89
2023/10/14 20:57:50;;;;;;;6.67;2.60;;;11.50;1.00;;;;;;4988765;28;20437;-89
2023/10/14 21:00:25;;;;;;;2.53;1.80;;;11.60;1.00;;;;;;4985048;28;20987;-89
2023/10/14 21:02:53;;;;;;;5.40;1.97;;;;;;;;;;4983088;28;20432;-89
2023/10/14 21:05:21;;;;;;;3.20;1.80;;;;;;;;;;4985675;28;20472;-89
2023/10/14 21:07:49;;;;;;;5.10;1.90;;;;;;;;;;4996626;28;20480;-88
2023/10/14 21:10:19;;;;;;;3.97;2.03;;;11.60;1.00;;;;;;5000058;28;20445;-87
2023/10/14 21:12:47;;;;;;;4.90;1.87;;;;;;;;;;4998920;28;20449;-88
2023/10/14 21:15:15;;;;;;;3.80;2.07;;;11.40;1.00;;;;;;4998731;28;20472;-88
2023/10/14 21:17:44;;;;;;;2.63;1.77;;;11.30;99.90;;;;;;4997091;28;20429;-88
2023/10/14 21:20:12;;;;;;;6.97;1.50;;;11.40;1.00;;;;;;4988531;28;20476;-88
2023/10/14 21:22:40;;;;;;;6.97;2.30;;;;;;;;;;4988003;28;20420;-89
2023/10/14 21:25:10;;;;;;;2.73;1.20;;;;;;;;;;4984526;28;20476;-88
2023/10/14 21:27:40;;;;;;;4.80;1.57;;;11.30;1.00;;;;;;4982560;28;20563;-88
2023/10/14 21:30:11;;;;;;;2.63;1.20;;;11.30;1.00;;;;;;4993207;28;20503;-87
2023/10/14 21:32:44;;;;;;;4.30;3.20;;;;;;;;;;5000001;28;20422;-87
2023/10/14 21:35:13;;;;;;;3.20;1.67;;;11.20;1.00;;;;;;4999656;28;20473;-88
2023/10/14 21:37:42;;;;;;;4.50;3.27;;;11.10;1.00;;;;;;4996477;28;20477;-89
2023/10/14 21:40:17;;;;;;;3.40;1.97;;;11.10;1.00;;;;;;4989330;28;20445;-88
2023/10/14 21:42:46;;;;;;;3.80;1.97;;;11.10;1.00;;;;;;4986422;28;20437;-88
2023/10/14 21:45:13;;;;;;;8.37;2.53;;;11.10;1.00;;;;;;4992518;28;20488;-89
2023/10/14 21:47:41;;;;;;;3.90;2.17;;;10.90;10.20;;;;;;4997179;28;20453;-89
2023/10/14 21:50:11;;;;;;;1.80;1.60;;;11.00;99.90;;;;;;4999774;28;20412;-88
2023/10/14 21:52:38;;;;;;;4.63;2.03;;;11.00;1.00;;;;;;4998447;28;20916;-89
2023/10/14 21:55:06;;;;;;;3.43;1.73;;;10.90;1.00;;;;;;4997261;28;20473;-88
2023/10/14 21:57:34;;;;;;;11.23;3.77;;;;;;;;;;4999576;28;20433;-90
2023/10/14 22:00:08;;;;;;;13.43;4.47;;;10.80;1.00;;;;;;4999573;28;20448;-88
2023/10/14 22:02:35;;;;;;;7.20;2.67;;;10.80;1.00;;;;;;4994492;28;20435;-89
2023/10/14 22:05:07;;;;;;;5.70;1.80;;;11.00;1.00;;;;;;4982659;28;20623;-89
2023/10/14 22:07:39;;;;;;;2.60;1.77;;;;;;;;;;4993441;28;20504;-89
2023/10/14 22:10:06;;;;;;;4.60;1.30;;;10.70;1.00;;;;;;4994521;28;20498;-89
2023/10/14 22:12:33;;;;;;;6.27;2.00;;;10.50;61.10;;;;;;4998879;28;20448;-89
2023/10/14 22:15:02;;;;;;;2.93;1.77;;;10.70;1.00;;;;;;4997516;28;20471;-90
2023/10/14 22:17:29;;;;;;;3.17;1.50;;;10.70;1.00;;;;;;4990536;28;20466;-90
2023/10/14 22:19:56;;;;;;;4.37;2.00;;;;;;;;;;4983541;28;20505;-90
2023/10/14 22:22:24;;;;;;;13.60;1.80;;;;;;;;;;4994778;28;20456;-89
2023/10/14 22:24:52;;;;;;;5.33;2.47;;;;;;;;;;5001795;28;20480;-89
2023/10/14 22:27:19;;;;;;;4.53;2.00;;;;;;;;;;5002551;28;20473;-90
2023/10/14 22:29:47;;;;;;;5.67;1.80;;;;;;;;;;4999822;28;20469;-89
2023/10/14 22:32:15;;;;;;;5.27;2.47;;;10.50;1.00;;;;;;5001565;28;20520;-89
2023/10/14 22:34:46;;;;;;;4.63;1.50;;;;;;;;;;5001764;28;20489;-89
2023/10/14 22:37:14;;;;;;;4.27;2.00;;;10.70;99.90;;;;;;5002233;28;20489;-90
2023/10/14 22:39:41;;;;;;;3.60;1.83;;;10.70;1.00;;;;;;5002119;28;20447;-88
2023/10/14 22:42:09;;;;;;;6.33;1.90;;;10.50;1.00;;;;;;5002120;28;20512;-88
2023/10/14 22:44:37;;;;;;;4.17;1.60;;;10.60;1.00;;;;;;4993584;28;20520;-89
2023/10/14 22:47:07;;;;;;;3.87;2.03;;;10.50;1.00;;;;;;4985523;28;20887;-89
2023/10/14 22:49:35;;;;;;;4.90;1.80;;;10.40;99.90;;;;;;4981254;28;20481;-89
2023/10/14 22:52:02;;;;;;;7.37;2.57;;;10.70;1.00;;;;;;4982216;28;20449;-89
2023/10/14 22:54:29;;;;;;;2.37;1.90;;;;;;;;;;4980344;28;20454;-89
2023/10/14 22:56:56;;;;;;;2.80;1.50;;;10.60;1.00;;;;;;4980883;28;20477;-89
2023/10/14 22:59:23;;;;;;;5.80;2.73;;;10.60;1.00;;;;;;4984988;28;20457;-87
2023/10/14 23:01:50;;;;;;;3.90;2.00;;;10.50;1.00;;;;;;4989392;28;20456;-89
2023/10/14 23:04:17;;;;;;;3.80;1.80;;;10.50;1.00;;;;;;4988028;28;20485;-89
2023/10/14 23:06:47;;;;;;;6.50;2.10;;;10.40;1.00;;;;;;4981075;28;20454;-88
2023/10/14 23:09:14;;;;;;;5.77;2.23;;;10.50;99.90;;;;;;4980117;28;20452;-90
2023/10/14 23:11:42;;;;;;;9.60;2.17;;;;;;;;;;4979649;28;20515;-90
2023/10/14 23:14:09;;;;;;;9.23;3.67;;;10.30;1.00;;;;;;4980585;28;20473;-89
2023/10/14 23:16:38;;;;;;;4.10;1.77;;;10.30;1.00;;;;;;4978984;28;20457;-89
2023/10/14 23:19:06;;;;;;;6.07;1.63;;;10.30;1.00;;;;;;4980462;28;20862;-89